Observation data for Friona on 11/16/2019      Previous  Date       Current Mesonet Observations  Soil Data  Daily Summary Page  Observations in Plain Language
KFAS 160600Z 20010KT 05/M02 A3015 RMK A01 T00461017  RH  064%=      5-min Rain = 0
KFAS 160605Z 20010KT 04/M02 A3015 RMK A01 T00431017  RH  066%=      5-min Rain = 0
KFAS 160610Z 21010KT 04/M02 A3015 RMK A01 T00411017  RH  067%=      5-min Rain = 0
KFAS 160615Z 21010KT 04/M02 A3015 RMK A01 T00411016  RH  067%=      5-min Rain = 0
KFAS 160620Z 21010KT 04/M02 A3015 RMK A01 T00431016  RH  066%=      5-min Rain = 0
KFAS 160625Z 21010KT 04/M02 A3015 RMK A01 T00431016  RH  066%=      5-min Rain = 0
KFAS 160630Z 21010KT 04/M02 A3015 RMK A01 T00431016  RH  066%=      5-min Rain = 0
KFAS 160635Z 21010KT 04/M02 A3015 RMK A01 T00411016  RH  067%=      5-min Rain = 0
KFAS 160640Z 21010KT 04/M02 A3015 RMK A01 T00401016  RH  068%=      5-min Rain = 0
KFAS 160645Z 21011KT 04/M01 A3015 RMK A01 T00411014  RH  068%=      5-min Rain = 0
KFAS 160650Z 20010KT 04/M01 A3014 RMK A01 T00411014  RH  068%=      5-min Rain = 0
KFAS 160655Z 21010KT 04/M01 A3014 RMK A01 T00411014  RH  068%=      5-min Rain = 0
KFAS 160700Z 21009KT 04/M01 A3014 RMK A01 T00411014  RH  068%=      5-min Rain = 0
KFAS 160705Z 21010KT 04/M01 A3014 RMK A01 T00401014  RH  069%=      5-min Rain = 0
KFAS 160710Z 21009KT 04/M01 A3014 RMK A01 T00381014  RH  069%=      5-min Rain = 0
KFAS 160715Z 21009KT 04/M02 A3014 RMK A01 T00361015  RH  070%=      5-min Rain = 0
KFAS 160720Z 21009KT 03/M02 A3014 RMK A01 T00341015  RH  071%=      5-min Rain = 0
KFAS 160725Z 21009KT 04/M01 A3014 RMK A01 T00351014  RH  071%=      5-min Rain = 0
KFAS 160730Z 21010KT 04/M01 A3014 RMK A01 T00371013  RH  071%=      5-min Rain = 0
KFAS 160735Z 21010KT 04/M01 A3014 RMK A01 T00371012  RH  071%=      5-min Rain = 0
KFAS 160740Z 22010KT 04/M01 A3014 RMK A01 T00381012  RH  071%=      5-min Rain = 0
KFAS 160745Z 21010KT 04/M01 A3013 RMK A01 T00381012  RH  071%=      5-min Rain = 0
KFAS 160750Z 21009KT 04/M01 A3013 RMK A01 T00361013  RH  071%=      5-min Rain = 0
KFAS 160755Z 21008KT 03/M01 A3013 RMK A01 T00321013  RH  073%=      5-min Rain = 0
KFAS 160800Z 21009KT 03/M01 A3013 RMK A01 T00311013  RH  073%=      5-min Rain = 0
KFAS 160805Z 21010KT 03/M01 A3013 RMK A01 T00321012  RH  073%=      5-min Rain = 0
KFAS 160810Z 21010KT 03/M01 A3013 RMK A01 T00331011  RH  073%=      5-min Rain = 0
KFAS 160815Z 21009KT 03/M01 A3013 RMK A01 T00341012  RH  073%=      5-min Rain = 0
KFAS 160820Z 21008KT 03/M01 A3013 RMK A01 T00311013  RH  074%=      5-min Rain = 0
KFAS 160825Z 21008KT 03/M01 A3012 RMK A01 T00281014  RH  075%=      5-min Rain = 0
KFAS 160830Z 20009KT 03/M01 A3012 RMK A01 T00271013  RH  076%=      5-min Rain = 0
KFAS 160835Z 20010KT 03/M01 A3012 RMK A01 T00291012  RH  075%=      5-min Rain = 0
KFAS 160840Z 20011KT 03/M01 A3012 RMK A01 T00321011  RH  074%=      5-min Rain = 0
KFAS 160845Z 20010KT 03/M01 A3012 RMK A01 T00321011  RH  074%=      5-min Rain = 0
KFAS 160850Z 20010KT 03/M01 A3012 RMK A01 T00321011  RH  074%=      5-min Rain = 0
KFAS 160855Z 20011KT 03/M01 A3012 RMK A01 T00331010  RH  074%=      5-min Rain = 0
KFAS 160900Z 20011KT 04/M01 A3011 RMK A01 T00351010  RH  073%=      5-min Rain = 0
KFAS 160905Z 20011KT 04/M01 A3011 RMK A01 T00351010  RH  073%=      5-min Rain = 0
KFAS 160910Z 20010KT 03/M01 A3011 RMK A01 T00331011  RH  073%=      5-min Rain = 0
KFAS 160915Z 21009KT 03/M01 A3011 RMK A01 T00321011  RH  074%=      5-min Rain = 0
KFAS 160920Z 20009KT 03/M01 A3011 RMK A01 T00311012  RH  074%=      5-min Rain = 0
KFAS 160925Z 21008KT 03/M01 A3011 RMK A01 T00281013  RH  075%=      5-min Rain = 0
KFAS 160930Z 21009KT 03/M01 A3011 RMK A01 T00271013  RH  076%=      5-min Rain = 0
KFAS 160935Z 21008KT 03/M01 A3011 RMK A01 T00261013  RH  076%=      5-min Rain = 0
KFAS 160940Z 21009KT 03/M01 A3011 RMK A01 T00251013  RH  077%=      5-min Rain = 0
KFAS 160945Z 20009KT 02/M01 A3011 RMK A01 T00241013  RH  077%=      5-min Rain = 0
KFAS 160950Z 20008KT 02/M01 A3011 RMK A01 T00231013  RH  077%=      5-min Rain = 0
KFAS 160955Z 20008KT 02/M01 A301 RMK A01 T00221014  RH  078%=      5-min Rain = 0
KFAS 161000Z 20008KT 02/M01 A301 RMK A01 T00221013  RH  078%=      5-min Rain = 0
KFAS 161005Z 20008KT 02/M01 A301 RMK A01 T00221013  RH  079%=      5-min Rain = 0
KFAS 161010Z 20008KT 02/M01 A301 RMK A01 T00221013  RH  079%=      5-min Rain = 0
KFAS 161015Z 21009KT 02/M01 A301 RMK A01 T00221012  RH  079%=      5-min Rain = 0
KFAS 161020Z 21009KT 02/M01 A301 RMK A01 T00231011  RH  079%=      5-min Rain = 0
KFAS 161025Z 20010KT 02/M01 A3009 RMK A01 T00241010  RH  079%=      5-min Rain = 0
KFAS 161030Z 20011KT 03/M01 A3009 RMK A01 T00251010  RH  079%=      5-min Rain = 0
KFAS 161035Z 21011KT 03/M01 A3009 RMK A01 T00261010  RH  078%=      5-min Rain = 0
KFAS 161040Z 21012KT 03/M01 A3009 RMK A01 T00271009  RH  078%=      5-min Rain = 0
KFAS 161045Z 20011KT 03/M01 A3009 RMK A01 T00271010  RH  078%=      5-min Rain = 0
KFAS 161050Z 20010KT 03/M01 A3009 RMK A01 T00261010  RH  078%=      5-min Rain = 0
KFAS 161055Z 20009KT 03/M01 A3009 RMK A01 T00251011  RH  078%=      5-min Rain = 0
KFAS 161100Z 21007KT 02/M01 A3009 RMK A01 T00221012  RH  079%=      5-min Rain = 0
KFAS 161105Z 21007KT 02/M01 A3009 RMK A01 T00191012  RH  080%=      5-min Rain = 0
KFAS 161110Z 21006KT 02/M01 A3009 RMK A01 T00211011  RH  080%=      5-min Rain = 0
KFAS 161115Z 22006KT 02/M01 A3009 RMK A01 T00211012  RH  080%=      5-min Rain = 0
KFAS 161120Z 21006KT 02/M01 A3009 RMK A01 T00221010  RH  080%=      5-min Rain = 0
KFAS 161125Z 21006KT 02/M01 A3009 RMK A01 T00221011  RH  079%=      5-min Rain = 0
KFAS 161130Z 20006KT 02/M01 A3009 RMK A01 T00191013  RH  080%=      5-min Rain = 0
KFAS 161135Z 20006KT 02/M01 A3009 RMK A01 T00161014  RH  081%=      5-min Rain = 0
KFAS 161140Z 20005KT 01/M02 A3009 RMK A01 T00121017  RH  082%=      5-min Rain = 0
KFAS 161145Z 20006KT 01/M02 A3009 RMK A01 T00081017  RH  083%=      5-min Rain = 0
KFAS 161150Z 21005KT 01/M02 A3009 RMK A01 T00071018  RH  084%=      5-min Rain = 0
KFAS 161155Z 21006KT 01/M02 A3009 RMK A01 T00071018  RH  084%=      5-min Rain = 0
KFAS 161200Z 21006KT 01/M02 A3009 RMK A01 T00061018  RH  085%=      5-min Rain = 0
KFAS 161205Z 21007KT 01/M02 A3009 RMK A01 T00091015  RH  085%=      5-min Rain = 0
KFAS 161210Z 21007KT 01/M02 A3008 RMK A01 T00101015  RH  084%=      5-min Rain = 0
KFAS 161215Z 21007KT 01/M01 A3008 RMK A01 T00111014  RH  084%=      5-min Rain = 0
KFAS 161220Z 21006KT 01/M01 A3008 RMK A01 T00111014  RH  084%=      5-min Rain = 0
KFAS 161225Z 21006KT 01/M01 A3008 RMK A01 T00121014  RH  084%=      5-min Rain = 0
KFAS 161230Z 22005KT 01/M02 A3008 RMK A01 T00101016  RH  084%=      5-min Rain = 0
KFAS 161235Z 26003KT 01/M02 A3009 RMK A01 T00061019  RH  084%=      5-min Rain = 0
KFAS 161240Z 28003KT 00/M02 A3009 RMK A01 T00011022  RH  085%=      5-min Rain = 0
KFAS 161245Z 27002KT 00/02 A3009 RMK A01 T00000-21  RH  086%=      5-min Rain = 0
KFAS 161250Z 27002KT M00/M03 A3009 RMK A01 T10021025  RH  085%=      5-min Rain = 0
KFAS 161255Z 29001KT M01/M03 A3009 RMK A01 T10061027  RH  086%=      5-min Rain = 0
KFAS 161300Z 30002KT M01/M03 A3009 RMK A01 T10091029  RH  087%=      5-min Rain = 0
KFAS 161305Z 28002KT M01/M03 A3009 RMK A01 T10111030  RH  087%=      5-min Rain = 0
KFAS 161310Z 22001KT M01/M03 A3009 RMK A01 T10131032  RH  088%=      5-min Rain = 0
KFAS 161315Z 19002KT M01/M03 A3009 RMK A01 T10141032  RH  088%=      5-min Rain = 0
KFAS 161320Z 17002KT M01/M03 A3009 RMK A01 T10141030  RH  089%=      5-min Rain = 0
KFAS 161325Z 17003KT M01/M03 A3009 RMK A01 T10111028  RH  089%=      5-min Rain = 0
KFAS 161330Z 19004KT M01/M03 A3009 RMK A01 T10101027  RH  089%=      5-min Rain = 0
KFAS 161335Z 18004KT M01/M03 A3009 RMK A01 T10101028  RH  088%=      5-min Rain = 0
KFAS 161340Z 19004KT M01/M03 A3009 RMK A01 T10121028  RH  089%=      5-min Rain = 0
KFAS 161345Z 18005KT M01/M02 A3009 RMK A01 T10101024  RH  091%=      5-min Rain = 0
KFAS 161350Z 19006KT M01/M02 A3009 RMK A01 T10061019  RH  091%=      5-min Rain = 0
KFAS 161355Z 19006KT M00/M02 A3009 RMK A01 T10011016  RH  091%=      5-min Rain = 0
KFAS 161400Z 19006KT 00/M02 A301 RMK A01 T00011015  RH  090%=      5-min Rain = 0
KFAS 161405Z 19006KT 00/M01 A3009 RMK A01 T00041013  RH  089%=      5-min Rain = 0
KFAS 161410Z 19007KT 01/M01 A3009 RMK A01 T00071012  RH  088%=      5-min Rain = 0
KFAS 161415Z 20007KT 01/M01 A3009 RMK A01 T00101011  RH  087%=      5-min Rain = 0
KFAS 161420Z 20006KT 01/M01 A3009 RMK A01 T00131009  RH  086%=      5-min Rain = 0
KFAS 161425Z 20007KT 02/M01 A3009 RMK A01 T00181006  RH  085%=      5-min Rain = 0
KFAS 161430Z 20007KT 02/M00 A3009 RMK A01 T00231004  RH  083%=      5-min Rain = 0
KFAS 161435Z 20006KT 03/M00 A3009 RMK A01 T00281003  RH  081%=      5-min Rain = 0
KFAS 161440Z 20006KT 03/M00 A3009 RMK A01 T00311003  RH  080%=      5-min Rain = 0
KFAS 161445Z 20005KT 03/00 A3009 RMK A01 T00340000  RH  079%=      5-min Rain = 0
KFAS 161450Z 21006KT 04/00 A3009 RMK A01 T00430003  RH  076%=      5-min Rain = 0
KFAS 161455Z 21007KT 05/00 A3008 RMK A01 T00480002  RH  073%=      5-min Rain = 0
KFAS 161500Z 20007KT 05/00 A3009 RMK A01 T00520003  RH  071%=      5-min Rain = 0
KFAS 161505Z 21008KT 06/00 A3009 RMK A01 T00560003  RH  070%=      5-min Rain = 0
KFAS 161510Z 21007KT 06/01 A3009 RMK A01 T00610005  RH  068%=      5-min Rain = 0
KFAS 161515Z 21007KT 07/01 A3009 RMK A01 T00650005  RH  067%=      5-min Rain = 0
KFAS 161520Z 21008KT 07/01 A3009 RMK A01 T00660005  RH  066%=      5-min Rain = 0
KFAS 161525Z 21009KT 07/01 A3009 RMK A01 T00700007  RH  065%=      5-min Rain = 0
KFAS 161530Z 21009KT 08/01 A3009 RMK A01 T00750008  RH  064%=      5-min Rain = 0
KFAS 161535Z 21009KT 08/01 A3009 RMK A01 T00810010  RH  062%=      5-min Rain = 0
KFAS 161540Z 21008KT 09/01 A3008 RMK A01 T00880012  RH  060%=      5-min Rain = 0
KFAS 161545Z 21010KT 09/01 A3008 RMK A01 T00920011  RH  057%=      5-min Rain = 0
KFAS 161550Z 21011KT 10/01 A3008 RMK A01 T00970009  RH  055%=      5-min Rain = 0
KFAS 161555Z 22010KT 10/01 A3008 RMK A01 T01010009  RH  053%=      5-min Rain = 0
KFAS 161600Z 22010KT 10/01 A3008 RMK A01 T01040008  RH  052%=      5-min Rain = 0
KFAS 161605Z 22010KT 11/01 A3007 RMK A01 T01080007  RH  050%=      5-min Rain = 0
KFAS 161610Z 22010KT 11/01 A3007 RMK A01 T01120007  RH  049%=      5-min Rain = 0
KFAS 161615Z 22011KT 12/01 A3007 RMK A01 T01150006  RH  048%=      5-min Rain = 0
KFAS 161620Z 22012KT 12/01 A3007 RMK A01 T01160005  RH  047%=      5-min Rain = 0
KFAS 161625Z 22011KT 12/01 A3007 RMK A01 T01180005  RH  047%=      5-min Rain = 0
KFAS 161630Z 22011KT 12/01 A3007 RMK A01 T01210006  RH  046%=      5-min Rain = 0
KFAS 161635Z 22011KT 12/01 A3007 RMK A01 T01230006  RH  045%=      5-min Rain = 0
KFAS 161640Z 22011KT 13/01 A3007 RMK A01 T01280006  RH  044%=      5-min Rain = 0
KFAS 161645Z 22009KT 13/01 A3007 RMK A01 T01310008  RH  044%=      5-min Rain = 0
KFAS 161650Z 21009KT 14/01 A3007 RMK A01 T01370010  RH  043%=      5-min Rain = 0
KFAS 161655Z 21010KT 14/01 A3007 RMK A01 T01410009  RH  041%=      5-min Rain = 0
KFAS 161700Z 21011KT 15/01 A3007 RMK A01 T01450007  RH  040%=      5-min Rain = 0
KFAS 161705Z 21010KT 15/01 A3006 RMK A01 T01510010  RH  039%=      5-min Rain = 0
KFAS 161710Z 21009KT 16/01 A3006 RMK A01 T01550009  RH  038%=      5-min Rain = 0
KFAS 161715Z 22010KT 16/01 A3006 RMK A01 T01570009  RH  037%=      5-min Rain = 0
KFAS 161720Z 21012KT 16/01 A3006 RMK A01 T01630006  RH  035%=      5-min Rain = 0
KFAS 161725Z 22011KT 17/00 A3005 RMK A01 T01690004  RH  033%=      5-min Rain = 0
KFAS 161730Z 21013KT 17/00 A3005 RMK A01 T01720003  RH  032%=      5-min Rain = 0
KFAS 161735Z 21011KT 18/01 A3005 RMK A01 T01750005  RH  032%=      5-min Rain = 0
KFAS 161740Z 20013KT 18/01 A3005 RMK A01 T01790006  RH  031%=      5-min Rain = 0
KFAS 161745Z 20012KT 18/01 A3004 RMK A01 T01780006  RH  032%=      5-min Rain = 0
KFAS 161750Z 20012KT 18/01 A3004 RMK A01 T01790006  RH  032%=      5-min Rain = 0
KFAS 161755Z 20013KT 18/01 A3004 RMK A01 T01790006  RH  032%=      5-min Rain = 0
KFAS 161800Z 20013KT 18/01 A3003 RMK A01 T01810005  RH  031%=      5-min Rain = 0
KFAS 161805Z 22012KT 18/00 A3003 RMK A01 T01820002  RH  030%=      5-min Rain = 0
KFAS 161810Z 21012KT 19/M00 A3002 RMK A01 T01851001  RH  029%=      5-min Rain = 0
KFAS 161815Z 21012KT 19/M00 A3002 RMK A01 T01921003  RH  027%=      5-min Rain = 0
KFAS 161820Z 21013KT 19/M01 A3002 RMK A01 T01941007  RH  026%=      5-min Rain = 0
KFAS 161825Z 21012KT 20/M01 A3001 RMK A01 T01991009  RH  025%=      5-min Rain = 0
KFAS 161830Z 21013KT 20/M01 A3001 RMK A01 T02021012  RH  024%=      5-min Rain = 0
KFAS 161835Z 21013KT 21/M01 A3001 RMK A01 T02061014  RH  023%=      5-min Rain = 0
KFAS 161840Z 21013KT 21/M02 A3001 RMK A01 T02081016  RH  022%=      5-min Rain = 0
KFAS 161845Z 21012KT 21/M02 A30 RMK A01 T02061015  RH  023%=      5-min Rain = 0
KFAS 161850Z 22012G17KT 21/M02 A30 RMK A01 T02051015  RH  023%=      5-min Rain = 0
KFAS 161855Z 22010KT 21/M01 A30 RMK A01 T02071011  RH  023%=      5-min Rain = 0
KFAS 161900Z 21011KT 21/M01 A2999 RMK A01 T02061011  RH  024%=      5-min Rain = 0
KFAS 161905Z 21011KT 20/M01 A2999 RMK A01 T02011014  RH  024%=      5-min Rain = 0
KFAS 161910Z 21010KT 20/M01 A2999 RMK A01 T02001011  RH  024%=      5-min Rain = 0
KFAS 161915Z 21011KT 20/M01 A2998 RMK A01 T02001011  RH  024%=      5-min Rain = 0
KFAS 161920Z 21010KT 20/M01 A2998 RMK A01 T02041008  RH  024%=      5-min Rain = 0
KFAS 161925Z 21011KT 21/M01 A2997 RMK A01 T02081011  RH  023%=      5-min Rain = 0
KFAS 161930Z 22010KT 21/M01 A2997 RMK A01 T02081012  RH  023%=      5-min Rain = 0
KFAS 161935Z 22011G17KT 21/M01 A2997 RMK A01 T02081012  RH  023%=      5-min Rain = 0
KFAS 161940Z 21011KT 21/M01 A2996 RMK A01 T02091010  RH  023%=      5-min Rain = 0
KFAS 161945Z 19012KT 21/M00 A2996 RMK A01 T02121004  RH  024%=      5-min Rain = 0
KFAS 161950Z 20012KT 20/M00 A2996 RMK A01 T02021003  RH  025%=      5-min Rain = 0
KFAS 161955Z 20013KT 20/M00 A2996 RMK A01 T01991004  RH  026%=      5-min Rain = 0
KFAS 162000Z 20012KT 20/M00 A2996 RMK A01 T01971001  RH  027%=      5-min Rain = 0
KFAS 162005Z 20013KT 20/M00 A2996 RMK A01 T01971001  RH  027%=      5-min Rain = 0
KFAS 162010Z 19012KT 19/01 A2996 RMK A01 T01930005  RH  029%=      5-min Rain = 0
KFAS 162015Z 19011KT 19/00 A2996 RMK A01 T01930004  RH  029%=      5-min Rain = 0
KFAS 162020Z 19011KT 19/01 A2996 RMK A01 T01930005  RH  029%=      5-min Rain = 0
KFAS 162025Z 19012KT 19/00 A2996 RMK A01 T01930001  RH  028%=      5-min Rain = 0
KFAS 162030Z 19010KT 19/00 A2995 RMK A01 T01940002  RH  028%=      5-min Rain = 0
KFAS 162035Z 20011KT 20/00 A2995 RMK A01 T01950003  RH  028%=      5-min Rain = 0
KFAS 162040Z 19012KT 20/M00 A2995 RMK A01 T01971001  RH  027%=      5-min Rain = 0
KFAS 162045Z 20012KT 20/M01 A2995 RMK A01 T01981005  RH  026%=      5-min Rain = 0
KFAS 162050Z 20010G15KT 20/M01 A2994 RMK A01 T01981006  RH  026%=      5-min Rain = 0
KFAS 162055Z 20011KT 20/M01 A2994 RMK A01 T02011006  RH  025%=      5-min Rain = 0
KFAS 162100Z 20011KT 20/M01 A2994 RMK A01 T02031007  RH  025%=      5-min Rain = 0
KFAS 162105Z 21010KT 20/M01 A2994 RMK A01 T02041007  RH  025%=      5-min Rain = 0
KFAS 162110Z 22010KT 21/M01 A2995 RMK A01 T02051013  RH  023%=      5-min Rain = 0
KFAS 162115Z 22010KT 20/M02 A2994 RMK A01 T02021021  RH  022%=      5-min Rain = 0
KFAS 162120Z 22010KT 20/M02 A2994 RMK A01 T02021019  RH  023%=      5-min Rain = 0
KFAS 162125Z 22010G16KT 21/M02 A2994 RMK A01 T02071016  RH  023%=      5-min Rain = 0
KFAS 162130Z 23012KT 21/M02 A2994 RMK A01 T02101024  RH  021%=      5-min Rain = 0
KFAS 162135Z 22011KT 21/M02 A2994 RMK A01 T02081024  RH  021%=      5-min Rain = 0
KFAS 162140Z 22009KT 20/M02 A2994 RMK A01 T02031022  RH  022%=      5-min Rain = 0
KFAS 162145Z 22011KT 20/M03 A2994 RMK A01 T02021025  RH  022%=      5-min Rain = 0
KFAS 162150Z 22009KT 21/M02 A2994 RMK A01 T02051021  RH  022%=      5-min Rain = 0
KFAS 162155Z 22010KT 21/M02 A2994 RMK A01 T02111021  RH  021%=      5-min Rain = 0
KFAS 162200Z 22009KT 22/M02 A2994 RMK A01 T02171020  RH  021%=      5-min Rain = 0
KFAS 162205Z 22011KT 22/M02 A2994 RMK A01 T02151022  RH  020%=      5-min Rain = 0
KFAS 162210Z 21011KT 21/M03 A2994 RMK A01 T02121026  RH  020%=      5-min Rain = 0
KFAS 162215Z 21009KT 21/M02 A2994 RMK A01 T02091024  RH  021%=      5-min Rain = 0
KFAS 162220Z 21008KT 21/M02 A2994 RMK A01 T02121018  RH  021%=      5-min Rain = 0
KFAS 162225Z 21008KT 21/M01 A2994 RMK A01 T02121014  RH  022%=      5-min Rain = 0
KFAS 162230Z 20008KT 21/M02 A2994 RMK A01 T02111015  RH  022%=      5-min Rain = 0
KFAS 162235Z 19008KT 21/M01 A2994 RMK A01 T02091012  RH  023%=      5-min Rain = 0
KFAS 162240Z 20009KT 20/M01 A2994 RMK A01 T02031009  RH  024%=      5-min Rain = 0
KFAS 162245Z 20009KT 19/M01 A2994 RMK A01 T01921011  RH  026%=      5-min Rain = 0
KFAS 162250Z 20008KT 18/M01 A2994 RMK A01 T01831013  RH  027%=      5-min Rain = 0
KFAS 162255Z 21008KT 18/M01 A2994 RMK A01 T01751011  RH  029%=      5-min Rain = 0
KFAS 162300Z 21008KT 17/M01 A2994 RMK A01 T01741014  RH  028%=      5-min Rain = 0
KFAS 162305Z 20007KT 17/M01 A2994 RMK A01 T01721011  RH  029%=      5-min Rain = 0
KFAS 162310Z 20008KT 17/M01 A2994 RMK A01 T01691010  RH  030%=      5-min Rain = 0
KFAS 162315Z 21007KT 17/M01 A2994 RMK A01 T01681011  RH  030%=      5-min Rain = 0
KFAS 162320Z 20007KT 17/M01 A2994 RMK A01 T01651007  RH  031%=      5-min Rain = 0
KFAS 162325Z 21008KT 16/M01 A2994 RMK A01 T01591007  RH  032%=      5-min Rain = 0
KFAS 162330Z 21007KT 16/M01 A2994 RMK A01 T01571009  RH  033%=      5-min Rain = 0
KFAS 162335Z 21007KT 15/M01 A2994 RMK A01 T01541008  RH  033%=      5-min Rain = 0
KFAS 162340Z 20006KT 15/M01 A2995 RMK A01 T01501005  RH  035%=      5-min Rain = 0
KFAS 162345Z 20007KT 14/M00 A2994 RMK A01 T01441003  RH  037%=      5-min Rain = 0
KFAS 162350Z 20007KT 14/M00 A2995 RMK A01 T01371002  RH  039%=      5-min Rain = 0
KFAS 162355Z 20007KT 13/M00 A2995 RMK A01 T01301002  RH  041%=      5-min Rain = 0
KFAS 170000Z 20007KT 13/M00 A2995 RMK A01 T01271003  RH  041%=      5-min Rain = 0
KFAS 170005Z 20007KT 13/M01 A2995 RMK A01 T01271005  RH  041%=      5-min Rain = 0
KFAS 170010Z 20007KT 13/M01 A2995 RMK A01 T01271005  RH  040%=      5-min Rain = 0
KFAS 170015Z 19007KT 12/M01 A2995 RMK A01 T01241006  RH  041%=      5-min Rain = 0
KFAS 170020Z 19007KT 12/M01 A2995 RMK A01 T01221006  RH  042%=      5-min Rain = 0
KFAS 170025Z 19008KT 12/M01 A2995 RMK A01 T01221006  RH  041%=      5-min Rain = 0
KFAS 170030Z 19008KT 12/M01 A2995 RMK A01 T01241006  RH  041%=      5-min Rain = 0
KFAS 170035Z 18007KT 12/M01 A2995 RMK A01 T01211006  RH  042%=      5-min Rain = 0
KFAS 170040Z 17007KT 12/M01 A2996 RMK A01 T01181006  RH  043%=      5-min Rain = 0
KFAS 170045Z 18006KT 12/M01 A2996 RMK A01 T01151008  RH  043%=      5-min Rain = 0
KFAS 170050Z 18006KT 11/M01 A2996 RMK A01 T01111007  RH  045%=      5-min Rain = 0
KFAS 170055Z 17006KT 10/M01 A2996 RMK A01 T01031007  RH  047%=      5-min Rain = 0
KFAS 170100Z 18007KT 10/M01 A2996 RMK A01 T01001005  RH  048%=      5-min Rain = 0
KFAS 170105Z 18008KT 10/M00 A2996 RMK A01 T01041002  RH  048%=      5-min Rain = 0
KFAS 170110Z 18007KT 10/M00 A2996 RMK A01 T01041001  RH  049%=      5-min Rain = 0
KFAS 170115Z 18007KT 10/M00 A2996 RMK A01 T00991001  RH  050%=      5-min Rain = 0
KFAS 170120Z 18007KT 09/M00 A2996 RMK A01 T00901003  RH  053%=      5-min Rain = 0
KFAS 170125Z 17007KT 09/M00 A2996 RMK A01 T00871001  RH  055%=      5-min Rain = 0
KFAS 170130Z 17007KT 09/M00 A2996 RMK A01 T00851001  RH  055%=      5-min Rain = 0
KFAS 170135Z 18007KT 08/00 A2996 RMK A01 T00820001  RH  057%=      5-min Rain = 0
KFAS 170140Z 18007KT 09/00 A2996 RMK A01 T00890003  RH  055%=      5-min Rain = 0
KFAS 170145Z 18006KT 09/00 A2996 RMK A01 T00930004  RH  054%=      5-min Rain = 0
KFAS 170150Z 18007KT 09/00 A2997 RMK A01 T00930004  RH  054%=      5-min Rain = 0
KFAS 170155Z 17008KT 09/00 A2996 RMK A01 T00920004  RH  055%=      5-min Rain = 0
KFAS 170200Z 18008KT 09/00 A2997 RMK A01 T00930004  RH  054%=      5-min Rain = 0
KFAS 170205Z 18008KT 09/00 A2997 RMK A01 T00900003  RH  055%=      5-min Rain = 0
KFAS 170210Z 19008KT 09/00 A2997 RMK A01 T00900003  RH  055%=      5-min Rain = 0
KFAS 170215Z 19008KT 09/00 A2997 RMK A01 T00910003  RH  055%=      5-min Rain = 0
KFAS 170220Z 19008KT 09/00 A2997 RMK A01 T00920004  RH  055%=      5-min Rain = 0
KFAS 170225Z 19008KT 09/00 A2997 RMK A01 T00920004  RH  055%=      5-min Rain = 0
KFAS 170230Z 19008KT 09/00 A2997 RMK A01 T00910004  RH  055%=      5-min Rain = 0
KFAS 170235Z 20009KT 09/00 A2997 RMK A01 T00890004  RH  056%=      5-min Rain = 0
KFAS 170240Z 20008KT 09/00 A2996 RMK A01 T00910004  RH  055%=      5-min Rain = 0
KFAS 170245Z 20008KT 09/00 A2996 RMK A01 T00880003  RH  056%=      5-min Rain = 0
KFAS 170250Z 20008KT 09/00 A2997 RMK A01 T00850002  RH  056%=      5-min Rain = 0
KFAS 170255Z 21007KT 09/00 A2997 RMK A01 T00850001  RH  056%=      5-min Rain = 0
KFAS 170300Z 22005KT 08/00 A2997 RMK A01 T00840000  RH  056%=      5-min Rain = 0
KFAS 170305Z 22002KT 08/00 A2997 RMK A01 T008100-0  RH  057%=      5-min Rain = 0
KFAS 170310Z 33001KT 08/M00 A2997 RMK A01 T00791001  RH  058%=      5-min Rain = 0
KFAS 170315Z 31003KT 08/M00 A2998 RMK A01 T00761001  RH  059%=      5-min Rain = 0
KFAS 170320Z 29004KT 07/M00 A2998 RMK A01 T00721002  RH  060%=      5-min Rain = 0
KFAS 170325Z 30004KT 07/M00 A2998 RMK A01 T00711003  RH  060%=      5-min Rain = 0
KFAS 170330Z 31004KT 07/M00 A2998 RMK A01 T00681001  RH  062%=      5-min Rain = 0
KFAS 170335Z 28005KT 07/M01 A2998 RMK A01 T00661006  RH  060%=      5-min Rain = 0
KFAS 170340Z 25005KT 07/M01 A2998 RMK A01 T00671009  RH  059%=      5-min Rain = 0
KFAS 170345Z 24004KT 06/M01 A2998 RMK A01 T00631010  RH  060%=      5-min Rain = 0
KFAS 170350Z 25005KT 06/M01 A2998 RMK A01 T00601009  RH  062%=      5-min Rain = 0
KFAS 170355Z 26003KT 06/M01 A2998 RMK A01 T00601009  RH  062%=      5-min Rain = 0
KFAS 170400Z 27003KT 06/M01 A2998 RMK A01 T00601009  RH  062%=      5-min Rain = 0
KFAS 170405Z 28003KT 06/M01 A2998 RMK A01 T00601009  RH  062%=      5-min Rain = 0
KFAS 170410Z 29003KT 06/M01 A2998 RMK A01 T00601009  RH  062%=      5-min Rain = 0
KFAS 170415Z 28004KT 06/M01 A2998 RMK A01 T00601008  RH  062%=      5-min Rain = 0
KFAS 170420Z 27003KT 06/M01 A2998 RMK A01 T00621009  RH  061%=      5-min Rain = 0
KFAS 170425Z 26004KT 06/M01 A2999 RMK A01 T00641010  RH  060%=      5-min Rain = 0
KFAS 170430Z 26005KT 07/M01 A2999 RMK A01 T00651010  RH  059%=      5-min Rain = 0
KFAS 170435Z 25004KT 06/M01 A2999 RMK A01 T00581010  RH  062%=      5-min Rain = 0
KFAS 170440Z 26003KT 06/M01 A2999 RMK A01 T00561009  RH  063%=      5-min Rain = 0
KFAS 170445Z 27002KT 06/M01 A2998 RMK A01 T00571009  RH  063%=      5-min Rain = 0
KFAS 170450Z 29003KT 06/M01 A2998 RMK A01 T00591008  RH  062%=      5-min Rain = 0
KFAS 170455Z 32003KT 06/M01 A2998 RMK A01 T00591009  RH  062%=      5-min Rain = 0
KFAS 170500Z 30005KT 06/M01 A2999 RMK A01 T00571008  RH  063%=      5-min Rain = 0
KFAS 170505Z 30004KT 06/M01 A2998 RMK A01 T00571008  RH  064%=      5-min Rain = 0
KFAS 170510Z 31003KT 06/M01 A2998 RMK A01 T00611009  RH  062%=      5-min Rain = 0
KFAS 170515Z 33004KT 06/M01 A2998 RMK A01 T00621009  RH  061%=      5-min Rain = 0
KFAS 170520Z 34004KT 06/M01 A2998 RMK A01 T00591010  RH  061%=      5-min Rain = 0
KFAS 170525Z 33005KT 06/M01 A2998 RMK A01 T00601009  RH  062%=      5-min Rain = 0
KFAS 170530Z 32006KT 06/M01 A2998 RMK A01 T00591007  RH  063%=      5-min Rain = 0
KFAS 170535Z 33007KT 06/M01 A2998 RMK A01 T00571007  RH  064%=      5-min Rain = 0
KFAS 170540Z 34008KT 05/M01 A2998 RMK A01 T00531005  RH  067%=      5-min Rain = 0
KFAS 170545Z 33008KT 06/M01 A2998 RMK A01 T00561005  RH  066%=      5-min Rain = 0
KFAS 170550Z 33008KT 06/M01 A2999 RMK A01 T00561006  RH  065%=      5-min Rain = 0
KFAS 170555Z 35008KT 06/M01 A2999 RMK A01 T00581006  RH  064%=      5-min Rain = 0

Page generated in 0.0093 seconds.